sensor_id;sensor_type;location;lat;lon;timestamp;pressure;altitude;pressure_sealevel;temperature;humidity
76054;BME280;64752;48.870;9.082;2023-12-07T00:00:27;98297.91;;;2.01;100.00
76054;BME280;64752;48.870;9.082;2023-12-07T00:02:53;98297.06;;;1.97;100.00
76054;BME280;64752;48.870;9.082;2023-12-07T00:05:18;98299.66;;;2.12;100.00
76054;BME280;64752;48.870;9.082;2023-12-07T00:07:43;98305.59;;;2.07;100.00
76054;BME280;64752;48.870;9.082;2023-12-07T00:10:09;98306.47;;;2.09;100.00
76054;BME280;64752;48.870;9.082;2023-12-07T00:12:34;98299.66;;;2.20;100.00
76054;BME280;64752;48.870;9.082;2023-12-07T00:15:00;98297.13;;;2.16;100.00
76054;BME280;64752;48.870;9.082;2023-12-07T00:17:25;98298.84;;;2.23;100.00
76054;BME280;64752;48.870;9.082;2023-12-07T00:19:51;98305.66;;;2.18;100.00
76054;BME280;64752;48.870;9.082;2023-12-07T00:22:19;98294.53;;;2.19;100.00
76054;BME280;64752;48.870;9.082;2023-12-07T00:24:44;98299.72;;;2.26;100.00
76054;BME280;64752;48.870;9.082;2023-12-07T00:27:10;98307.38;;;2.25;100.00
76054;BME280;64752;48.870;9.082;2023-12-07T00:29:37;98303.94;;;2.21;100.00
76054;BME280;64752;48.870;9.082;2023-12-07T00:32:03;98309.06;;;2.27;100.00
76054;BME280;64752;48.870;9.082;2023-12-07T00:34:28;98310.75;;;2.22;100.00
76054;BME280;64752;48.870;9.082;2023-12-07T00:36:54;98310.78;;;2.24;100.00
76054;BME280;64752;48.870;9.082;2023-12-07T00:39:19;98311.66;;;2.24;100.00
76054;BME280;64752;48.870;9.082;2023-12-07T00:41:44;98315.91;;;2.25;100.00
76054;BME280;64752;48.870;9.082;2023-12-07T00:44:15;98315.06;;;2.26;100.00
76054;BME280;64752;48.870;9.082;2023-12-07T00:46:41;98319.34;;;2.34;100.00
76054;BME280;64752;48.870;9.082;2023-12-07T00:49:06;98321.06;;;2.36;100.00
76054;BME280;64752;48.870;9.082;2023-12-07T00:51:31;98315.06;;;2.33;100.00
76054;BME280;64752;48.870;9.082;2023-12-07T00:53:57;98317.63;;;2.28;100.00
76054;BME280;64752;48.870;9.082;2023-12-07T00:56:23;98314.19;;;2.21;100.00
76054;BME280;64752;48.870;9.082;2023-12-07T00:58:49;98322.75;;;2.28;100.00
76054;BME280;64752;48.870;9.082;2023-12-07T01:01:14;98321.88;;;2.24;100.00
76054;BME280;64752;48.870;9.082;2023-12-07T01:03:39;98317.63;;;2.25;100.00
76054;BME280;64752;48.870;9.082;2023-12-07T01:06:06;98317.59;;;2.29;100.00
76054;BME280;64752;48.870;9.082;2023-12-07T01:08:31;98324.44;;;2.30;100.00
76054;BME280;64752;48.870;9.082;2023-12-07T01:10:57;98321.03;;;2.31;100.00
76054;BME280;64752;48.870;9.082;2023-12-07T01:13:22;98328.69;;;2.31;100.00
76054;BME280;64752;48.870;9.082;2023-12-07T01:15:49;98329.53;;;2.27;100.00
76054;BME280;64752;48.870;9.082;2023-12-07T01:18:14;98334.69;;;2.24;100.00
76054;BME280;64752;48.870;9.082;2023-12-07T01:20:39;98342.31;;;2.21;100.00
76054;BME280;64752;48.870;9.082;2023-12-07T01:23:05;98338.09;;;2.26;100.00
76054;BME280;64752;48.870;9.082;2023-12-07T01:25:30;98339.78;;;2.23;100.00
76054;BME280;64752;48.870;9.082;2023-12-07T01:27:56;98343.16;;;2.20;100.00
76054;BME280;64752;48.870;9.082;2023-12-07T01:30:22;98346.56;;;2.10;100.00
76054;BME280;64752;48.870;9.082;2023-12-07T01:32:47;98338.91;;;2.18;100.00
76054;BME280;64752;48.870;9.082;2023-12-07T01:35:12;98346.53;;;2.13;100.00
76054;BME280;64752;48.870;9.082;2023-12-07T01:37:38;98347.41;;;2.18;100.00
76054;BME280;64752;48.870;9.082;2023-12-07T01:40:03;98349.16;;;2.19;100.00
76054;BME280;64752;48.870;9.082;2023-12-07T01:42:31;98353.41;;;2.17;100.00
76054;BME280;64752;48.870;9.082;2023-12-07T01:44:56;98353.41;;;2.17;100.00
76054;BME280;64752;48.870;9.082;2023-12-07T01:47:22;98357.69;;;2.23;100.00
76054;BME280;64752;48.870;9.082;2023-12-07T01:49:47;98351.69;;;2.16;100.00
76054;BME280;64752;48.870;9.082;2023-12-07T01:52:14;98352.50;;;2.09;100.00
76054;BME280;64752;48.870;9.082;2023-12-07T01:54:39;98356.78;;;2.10;100.00
76054;BME280;64752;48.870;9.082;2023-12-07T01:57:05;98353.28;;;1.88;100.00
76054;BME280;64752;48.870;9.082;2023-12-07T01:59:31;98357.53;;;1.86;100.00
76054;BME280;64752;48.870;9.082;2023-12-07T02:01:56;98366.81;;;1.73;100.00
76054;BME280;64752;48.870;9.082;2023-12-07T02:04:22;98369.38;;;1.76;100.00
76054;BME280;64752;48.870;9.082;2023-12-07T02:06:48;98377.00;;;1.67;100.00
76054;BME280;64752;48.870;9.082;2023-12-07T02:09:13;98365.91;;;1.65;100.00
76054;BME280;64752;48.870;9.082;2023-12-07T02:11:38;98365.88;;;1.62;100.00
76054;BME280;64752;48.870;9.082;2023-12-07T02:14:04;98360.00;;;1.73;100.00
76054;BME280;64752;48.870;9.082;2023-12-07T02:19:16;98364.72;;;1.17;100.00
76054;BME280;64752;48.870;9.082;2023-12-07T02:21:57;98358.56;;;0.94;100.00
76054;BME280;64752;48.870;9.082;2023-12-07T02:24:26;98352.69;;;1.06;100.00
76054;BME280;64752;48.870;9.082;2023-12-07T02:26:52;98352.56;;;0.91;100.00
76054;BME280;64752;48.870;9.082;2023-12-07T02:29:17;98355.09;;;0.88;100.00
76054;BME280;64752;48.870;9.082;2023-12-07T02:31:43;98360.91;;;0.73;100.00
76054;BME280;64752;48.870;9.082;2023-12-07T02:34:08;98357.34;;;0.55;100.00
76054;BME280;64752;48.870;9.082;2023-12-07T02:36:37;98358.13;;;0.48;100.00
76054;BME280;64752;48.870;9.082;2023-12-07T02:39:05;98364.03;;;0.47;100.00
76054;BME280;64752;48.870;9.082;2023-12-07T02:41:33;98354.72;;;0.51;100.00
76054;BME280;64752;48.870;9.082;2023-12-07T02:43:59;98357.25;;;0.46;100.00
76054;BME280;64752;48.870;9.082;2023-12-07T02:46:25;98361.50;;;0.47;100.00
76054;BME280;64752;48.870;9.082;2023-12-07T02:48:51;98351.25;;;0.43;100.00
76054;BME280;64752;48.870;9.082;2023-12-07T02:51:16;98353.28;;;0.76;100.00
76054;BME280;64752;48.870;9.082;2023-12-07T02:53:42;98348.03;;;0.62;100.00
76054;BME280;64752;48.870;9.082;2023-12-07T02:56:07;98348.75;;;0.47;100.00
76054;BME280;64752;48.870;9.082;2023-12-07T02:58:32;98349.50;;;0.38;100.00
76054;BME280;64752;48.870;9.082;2023-12-07T03:00:58;98354.50;;;0.28;100.00
76054;BME280;64752;48.870;9.082;2023-12-07T03:03:24;98354.38;;;0.20;100.00
76054;BME280;64752;48.870;9.082;2023-12-07T03:05:49;98353.44;;;0.12;100.00
76054;BME280;64752;48.870;9.082;2023-12-07T03:08:15;98364.56;;;0.20;100.00
76054;BME280;64752;48.870;9.082;2023-12-07T03:10:40;98357.53;;;-0.01;100.00
76054;BME280;64752;48.870;9.082;2023-12-07T03:13:05;98359.94;;;-0.12;100.00
76054;BME280;64752;48.870;9.082;2023-12-07T03:15:31;98360.56;;;-0.28;100.00
76054;BME280;64752;48.870;9.082;2023-12-07T03:17:56;98356.22;;;-0.35;100.00
76054;BME280;64752;48.870;9.082;2023-12-07T03:20:21;98354.63;;;-0.29;100.00
76054;BME280;64752;48.870;9.082;2023-12-07T03:22:47;98359.00;;;-0.20;100.00
76054;BME280;64752;48.870;9.082;2023-12-07T03:25:12;98359.00;;;-0.20;100.00
76054;BME280;64752;48.870;9.082;2023-12-07T03:27:37;98363.25;;;-0.19;100.00
76054;BME280;64752;48.870;9.082;2023-12-07T03:30:03;98359.72;;;-0.29;100.00
76054;BME280;64752;48.870;9.082;2023-12-07T03:32:28;98358.91;;;-0.26;100.00
76054;BME280;64752;48.870;9.082;2023-12-07T03:34:54;98358.91;;;-0.26;100.00
76054;BME280;64752;48.870;9.082;2023-12-07T03:37:19;98357.47;;;-0.07;100.00
76054;BME280;64752;48.870;9.082;2023-12-07T03:39:44;98354.03;;;-0.11;100.00
76054;BME280;64752;48.870;9.082;2023-12-07T03:42:10;98366.50;;;-0.28;100.00
76054;BME280;64752;48.870;9.082;2023-12-07T03:44:35;98362.94;;;-0.42;100.00
76054;BME280;64752;48.870;9.082;2023-12-07T03:47:00;98362.28;;;-0.29;100.00
76054;BME280;64752;48.870;9.082;2023-12-07T03:49:26;98370.84;;;-0.22;100.00
76054;BME280;64752;48.870;9.082;2023-12-07T03:51:51;98369.78;;;-0.38;100.00
76054;BME280;64752;48.870;9.082;2023-12-07T03:54:17;98374.00;;;-0.40;100.00
76054;BME280;64752;48.870;9.082;2023-12-07T03:56:42;98369.53;;;-0.55;100.00
76054;BME280;64752;48.870;9.082;2023-12-07T03:59:07;98374.63;;;-0.53;100.00
76054;BME280;64752;48.870;9.082;2023-12-07T04:01:33;98377.03;;;-0.64;100.00
76054;BME280;64752;48.870;9.082;2023-12-07T04:03:58;98370.84;;;-0.80;100.00
76054;BME280;64752;48.870;9.082;2023-12-07T04:06:25;98374.19;;;-0.84;100.00
76054;BME280;64752;48.870;9.082;2023-12-07T04:08:50;98377.84;;;-0.67;100.00
76054;BME280;64752;48.870;9.082;2023-12-07T04:11:16;98382.13;;;-0.64;100.00
76054;BME280;64752;48.870;9.082;2023-12-07T04:13:42;98377.06;;;-0.61;100.00
76054;BME280;64752;48.870;9.082;2023-12-07T04:16:08;98376.94;;;-0.70;100.00
76054;BME280;64752;48.870;9.082;2023-12-07T04:18:34;98379.63;;;-0.61;100.00
76054;BME280;64752;48.870;9.082;2023-12-07T04:20:59;98388.97;;;-0.62;100.00
76054;BME280;64752;48.870;9.082;2023-12-07T04:23:24;98384.97;;;-0.44;100.00
76054;BME280;64752;48.870;9.082;2023-12-07T04:25:50;98380.97;;;-0.27;100.00
76054;BME280;64752;48.870;9.082;2023-12-07T04:28:15;98384.47;;;-0.22;100.00
76054;BME280;64752;48.870;9.082;2023-12-07T04:30:41;98387.16;;;-0.09;100.00
76054;BME280;64752;48.870;9.082;2023-12-07T04:33:06;98389.72;;;-0.08;100.00
76054;BME280;64752;48.870;9.082;2023-12-07T04:35:31;98387.06;;;-0.17;100.00
76054;BME280;64752;48.870;9.082;2023-12-07T04:37:57;98383.53;;;-0.27;100.00
76054;BME280;64752;48.870;9.082;2023-12-07T04:40:24;98390.34;;;-0.26;100.00
76054;BME280;64752;48.870;9.082;2023-12-07T04:42:50;98389.19;;;-0.48;100.00
76054;BME280;64752;48.870;9.082;2023-12-07T04:45:15;98393.38;;;-0.50;100.00
76054;BME280;64752;48.870;9.082;2023-12-07T04:47:40;98388.25;;;-0.53;100.00
76054;BME280;64752;48.870;9.082;2023-12-07T04:50:06;98397.53;;;-0.56;100.00
76054;BME280;64752;48.870;9.082;2023-12-07T04:52:32;98393.13;;;-0.67;100.00
76054;BME280;64752;48.870;9.082;2023-12-07T04:54:58;98396.28;;;-0.82;100.00
76054;BME280;64752;48.870;9.082;2023-12-07T04:57:24;98392.72;;;-0.91;100.00
76054;BME280;64752;48.870;9.082;2023-12-07T04:59:49;98386.78;;;-0.92;100.00
76054;BME280;64752;48.870;9.082;2023-12-07T05:02:17;98396.06;;;-0.94;100.00
76054;BME280;64752;48.870;9.082;2023-12-07T05:04:43;98394.00;;;-0.65;100.00
76054;BME280;64752;48.870;9.082;2023-12-07T05:07:10;98394.88;;;-0.63;100.00
76054;BME280;64752;48.870;9.082;2023-12-07T05:09:35;98388.88;;;-0.66;100.00
76054;BME280;64752;48.870;9.082;2023-12-07T05:12:01;98392.63;;;-0.43;100.00
76054;BME280;64752;48.870;9.082;2023-12-07T05:14:26;98391.56;;;-0.57;100.00
76054;BME280;64752;48.870;9.082;2023-12-07T05:16:51;98397.56;;;-0.53;100.00
76054;BME280;64752;48.870;9.082;2023-12-07T05:19:21;98400.69;;;-0.71;100.00
76054;BME280;64752;48.870;9.082;2023-12-07T05:21:47;98397.84;;;-0.88;100.00
76054;BME280;64752;48.870;9.082;2023-12-07T05:24:13;98399.41;;;-0.97;100.00
76054;BME280;64752;48.870;9.082;2023-12-07T05:26:40;98400.25;;;-0.98;100.00
76054;BME280;64752;48.870;9.082;2023-12-07T05:29:05;98404.03;;;-1.24;100.00
76054;BME280;64752;48.870;9.082;2023-12-07T05:31:31;98409.16;;;-1.23;100.00
76054;BME280;64752;48.870;9.082;2023-12-07T05:33:56;98403.34;;;-1.15;100.00
76054;BME280;64752;48.870;9.082;2023-12-07T05:36:21;98407.72;;;-1.07;100.00
76054;BME280;64752;48.870;9.082;2023-12-07T05:38:46;98407.16;;;-0.90;100.00
76054;BME280;64752;48.870;9.082;2023-12-07T05:41:12;98414.13;;;-0.80;100.00
76054;BME280;64752;48.870;9.082;2023-12-07T05:43:40;98398.84;;;-0.80;100.00
76054;BME280;64752;48.870;9.082;2023-12-07T05:46:06;98398.81;;;-0.82;100.00
76054;BME280;64752;48.870;9.082;2023-12-07T05:48:32;98401.31;;;-0.86;100.00
76054;BME280;64752;48.870;9.082;2023-12-07T05:50:57;98406.13;;;-1.02;100.00
76054;BME280;64752;48.870;9.082;2023-12-07T05:53:22;98405.16;;;-1.08;100.00
76054;BME280;64752;48.870;9.082;2023-12-07T05:55:49;98403.56;;;-1.02;100.00
76054;BME280;64752;48.870;9.082;2023-12-07T05:58:14;98396.97;;;-0.92;100.00
76054;BME280;64752;48.870;9.082;2023-12-07T06:00:40;98393.75;;;-0.80;100.00
76054;BME280;64752;48.870;9.082;2023-12-07T06:03:05;98404.13;;;-0.69;100.00
76054;BME280;64752;48.870;9.082;2023-12-07T06:05:30;98393.97;;;-0.66;100.00
76054;BME280;64752;48.870;9.082;2023-12-07T06:07:56;98404.28;;;-0.59;100.00
76054;BME280;64752;48.870;9.082;2023-12-07T06:10:21;98408.50;;;-0.59;100.00
76054;BME280;64752;48.870;9.082;2023-12-07T06:12:47;98398.19;;;-0.68;100.00
76054;BME280;64752;48.870;9.082;2023-12-07T06:15:12;98409.00;;;-0.82;100.00
76054;BME280;64752;48.870;9.082;2023-12-07T06:17:37;98410.72;;;-0.79;100.00
76054;BME280;64752;48.870;9.082;2023-12-07T06:20:03;98401.28;;;-0.88;100.00
76054;BME280;64752;48.870;9.082;2023-12-07T06:22:28;98397.72;;;-0.96;100.00
76054;BME280;64752;48.870;9.082;2023-12-07T06:24:54;98395.94;;;-1.02;100.00
76054;BME280;64752;48.870;9.082;2023-12-07T06:27:19;98399.41;;;-0.97;100.00
76054;BME280;64752;48.870;9.082;2023-12-07T06:29:45;98399.47;;;-0.93;100.00
76054;BME280;64752;48.870;9.082;2023-12-07T06:32:10;98401.31;;;-0.85;100.00
76054;BME280;64752;48.870;9.082;2023-12-07T06:34:40;98399.34;;;-1.00;100.00
76054;BME280;64752;48.870;9.082;2023-12-07T06:37:05;98401.16;;;-0.94;100.00
76054;BME280;64752;48.870;9.082;2023-12-07T06:39:31;98404.69;;;-0.86;100.00
76054;BME280;64752;48.870;9.082;2023-12-07T06:41:56;98401.13;;;-0.97;100.00
76054;BME280;64752;48.870;9.082;2023-12-07T06:44:21;98407.56;;;-1.16;100.00
76054;BME280;64752;48.870;9.082;2023-12-07T06:46:47;98407.44;;;-1.22;100.00
76054;BME280;64752;48.870;9.082;2023-12-07T06:49:12;98408.09;;;-1.34;100.00
76054;BME280;64752;48.870;9.082;2023-12-07T06:51:38;98406.34;;;-1.37;100.00
76054;BME280;64752;48.870;9.082;2023-12-07T06:54:03;98410.47;;;-1.42;100.00
76054;BME280;64752;48.870;9.082;2023-12-07T06:56:29;98414.28;;;-1.64;100.00
76054;BME280;64752;48.870;9.082;2023-12-07T06:58:54;98409.88;;;-1.72;100.00
76054;BME280;64752;48.870;9.082;2023-12-07T07:01:19;98405.66;;;-1.72;100.00
76054;BME280;64752;48.870;9.082;2023-12-07T07:03:45;98402.38;;;-1.66;100.00
76054;BME280;64752;48.870;9.082;2023-12-07T07:06:10;98412.59;;;-1.65;100.00
76054;BME280;64752;48.870;9.082;2023-12-07T07:08:36;98418.56;;;-1.63;100.00
76054;BME280;64752;48.870;9.082;2023-12-07T07:11:01;98415.19;;;-1.60;100.00
76054;BME280;64752;48.870;9.082;2023-12-07T07:13:26;98405.81;;;-1.64;100.00
76054;BME280;64752;48.870;9.082;2023-12-07T07:15:51;98408.34;;;-1.64;100.00
76054;BME280;64752;48.870;9.082;2023-12-07T07:18:17;98412.50;;;-1.68;100.00
76054;BME280;64752;48.870;9.082;2023-12-07T07:20:42;98405.72;;;-1.69;100.00
76054;BME280;64752;48.870;9.082;2023-12-07T07:23:07;98404.84;;;-1.69;100.00
76054;BME280;64752;48.870;9.082;2023-12-07T07:25:33;98410.03;;;-1.65;100.00
76054;BME280;64752;48.870;9.082;2023-12-07T07:27:59;98417.84;;;-1.56;100.00
76054;BME280;64752;48.870;9.082;2023-12-07T07:30:25;98413.47;;;-1.63;100.00
76054;BME280;64752;48.870;9.082;2023-12-07T07:32:51;98410.22;;;-1.56;100.00
76054;BME280;64752;48.870;9.082;2023-12-07T07:35:17;98411.22;;;-1.49;100.00
76054;BME280;64752;48.870;9.082;2023-12-07T07:37:43;98410.47;;;-1.42;100.00
76054;BME280;64752;48.870;9.082;2023-12-07T07:40:08;98405.53;;;-1.36;100.00
76054;BME280;64752;48.870;9.082;2023-12-07T07:42:37;98410.75;;;-1.28;100.00
76054;BME280;64752;48.870;9.082;2023-12-07T07:45:04;98410.75;;;-1.28;100.00
76054;BME280;64752;48.870;9.082;2023-12-07T07:47:30;98416.72;;;-1.26;100.00
76054;BME280;64752;48.870;9.082;2023-12-07T07:49:55;98433.00;;;-1.16;100.00
76054;BME280;64752;48.870;9.082;2023-12-07T07:52:21;98427.03;;;-1.18;100.00
76054;BME280;64752;48.870;9.082;2023-12-07T07:54:46;98427.91;;;-1.16;100.00
76054;BME280;64752;48.870;9.082;2023-12-07T07:57:11;98429.63;;;-1.15;100.00
76054;BME280;64752;48.870;9.082;2023-12-07T07:59:37;98435.66;;;-1.10;100.00
76054;BME280;64752;48.870;9.082;2023-12-07T08:02:02;98428.25;;;-0.96;100.00
76054;BME280;64752;48.870;9.082;2023-12-07T08:04:28;98432.50;;;-0.97;100.00
76054;BME280;64752;48.870;9.082;2023-12-07T08:06:53;98428.97;;;-1.03;100.00
76054;BME280;64752;48.870;9.082;2023-12-07T08:09:18;98436.16;;;-0.82;100.00
76054;BME280;64752;48.870;9.082;2023-12-07T08:11:44;98433.00;;;-0.67;100.00
76054;BME280;64752;48.870;9.082;2023-12-07T08:14:09;98435.03;;;-0.48;100.00
76054;BME280;64752;48.870;9.082;2023-12-07T08:16:34;98437.69;;;-0.40;100.00
76054;BME280;64752;48.870;9.082;2023-12-07T08:19:00;98434.41;;;-0.33;100.00
76054;BME280;64752;48.870;9.082;2023-12-07T08:21:25;98437.06;;;-0.25;100.00
76054;BME280;64752;48.870;9.082;2023-12-07T08:23:51;98429.28;;;-0.34;100.00
76054;BME280;64752;48.870;9.082;2023-12-07T08:26:17;98422.56;;;-0.29;100.00
76054;BME280;64752;48.870;9.082;2023-12-07T08:28:42;98428.50;;;-0.29;100.00
76054;BME280;64752;48.870;9.082;2023-12-07T08:31:08;98425.16;;;-0.25;100.00
76054;BME280;64752;48.870;9.082;2023-12-07T08:33:33;98431.47;;;0.01;100.00
76054;BME280;64752;48.870;9.082;2023-12-07T08:36:00;98428.16;;;0.06;100.00
76054;BME280;64752;48.870;9.082;2023-12-07T08:38:25;98427.19;;;-0.04;100.00
76054;BME280;64752;48.870;9.082;2023-12-07T08:40:50;98432.41;;;0.06;100.00
76054;BME280;64752;48.870;9.082;2023-12-07T08:43:18;98427.63;;;0.30;100.00
76054;BME280;64752;48.870;9.082;2023-12-07T08:45:45;98421.13;;;0.55;100.00
76054;BME280;64752;48.870;9.082;2023-12-07T08:48:10;98415.38;;;0.76;100.00
76054;BME280;64752;48.870;9.082;2023-12-07T08:50:36;98411.97;;;1.72;100.00
76054;BME280;64752;48.870;9.082;2023-12-07T08:53:02;98411.50;;;2.46;100.00
76054;BME280;64752;48.870;9.082;2023-12-07T08:55:28;98404.00;;;3.46;100.00
76054;BME280;64752;48.870;9.082;2023-12-07T08:57:55;98409.75;;;4.54;100.00
76054;BME280;64752;48.870;9.082;2023-12-07T09:00:20;98408.72;;;4.88;92.86
76054;BME280;64752;48.870;9.082;2023-12-07T09:02:49;98396.88;;;4.60;89.92
76054;BME280;64752;48.870;9.082;2023-12-07T09:05:16;98395.59;;;6.22;91.06
76054;BME280;64752;48.870;9.082;2023-12-07T09:07:42;98403.69;;;6.64;82.35
76054;BME280;64752;48.870;9.082;2023-12-07T09:10:07;98394.25;;;7.22;76.16
76054;BME280;64752;48.870;9.082;2023-12-07T09:12:33;98385.25;;;7.48;70.95
76054;BME280;64752;48.870;9.082;2023-12-07T09:15:01;98382.78;;;8.38;71.37
76054;BME280;64752;48.870;9.082;2023-12-07T09:17:26;98388.91;;;8.33;71.66
76054;BME280;64752;48.870;9.082;2023-12-07T09:19:52;98379.06;;;8.06;69.37
76054;BME280;64752;48.870;9.082;2023-12-07T09:22:18;98387.56;;;9.35;71.75
76054;BME280;64752;48.870;9.082;2023-12-07T09:24:45;98383.25;;;10.37;62.69
76054;BME280;64752;48.870;9.082;2023-12-07T09:27:13;98378.19;;;10.62;62.06
76054;BME280;64752;48.870;9.082;2023-12-07T09:29:38;98379.34;;;11.10;58.16
76054;BME280;64752;48.870;9.082;2023-12-07T09:32:04;98364.06;;;11.81;59.63
76054;BME280;64752;48.870;9.082;2023-12-07T09:34:30;98372.75;;;11.54;57.81
76054;BME280;64752;48.870;9.082;2023-12-07T09:37:11;98376.91;;;12.10;54.77
76054;BME280;64752;48.870;9.082;2023-12-07T09:39:37;98377.69;;;12.85;52.88
76054;BME280;64752;48.870;9.082;2023-12-07T09:42:02;98372.78;;;12.53;51.85
76054;BME280;64752;48.870;9.082;2023-12-07T09:44:28;98374.72;;;11.46;58.24
76054;BME280;64752;48.870;9.082;2023-12-07T09:46:54;98367.06;;;11.68;54.89
76054;BME280;64752;48.870;9.082;2023-12-07T09:49:20;98376.28;;;12.04;53.13
76054;BME280;64752;48.870;9.082;2023-12-07T09:51:46;98367.78;;;12.47;54.05
76054;BME280;64752;48.870;9.082;2023-12-07T09:54:12;98373.38;;;13.50;51.33
76054;BME280;64752;48.870;9.082;2023-12-07T09:56:38;98365.41;;;12.65;49.34
76054;BME280;64752;48.870;9.082;2023-12-07T09:59:04;98373.41;;;14.12;49.10
76054;BME280;64752;48.870;9.082;2023-12-07T10:01:30;98366.88;;;13.60;49.12
76054;BME280;64752;48.870;9.082;2023-12-07T10:04:23;98358.13;;;14.81;47.61
76054;BME280;64752;48.870;9.082;2023-12-07T10:06:51;98349.03;;;13.51;48.42
76054;BME280;64752;48.870;9.082;2023-12-07T10:09:17;98336.00;;;14.51;47.93
76054;BME280;64752;48.870;9.082;2023-12-07T10:11:44;98336.72;;;13.96;48.53
76054;BME280;64752;48.870;9.082;2023-12-07T10:14:09;98332.25;;;15.13;43.71
76054;BME280;64752;48.870;9.082;2023-12-07T10:16:36;98322.94;;;15.08;43.88
76054;BME280;64752;48.870;9.082;2023-12-07T10:19:14;98324.94;;;16.07;42.42
76054;BME280;64752;48.870;9.082;2023-12-07T10:21:43;98328.06;;;15.80;41.64
76054;BME280;64752;48.870;9.082;2023-12-07T10:24:09;98322.94;;;12.86;46.52
76054;BME280;64752;48.870;9.082;2023-12-07T10:26:35;98323.47;;;13.17;47.04
76054;BME280;64752;48.870;9.082;2023-12-07T10:29:06;98315.34;;;13.67;46.62
76054;BME280;64752;48.870;9.082;2023-12-07T10:31:32;98316.19;;;15.03;44.27
76054;BME280;64752;48.870;9.082;2023-12-07T10:34:01;98308.03;;;15.10;44.20
76054;BME280;64752;48.870;9.082;2023-12-07T10:36:26;98298.50;;;15.09;44.65
76054;BME280;64752;48.870;9.082;2023-12-07T10:38:52;98304.97;;;15.19;43.87
76054;BME280;64752;48.870;9.082;2023-12-07T10:41:23;98309.81;;;15.09;43.64
76054;BME280;64752;48.870;9.082;2023-12-07T10:43:54;98303.00;;;14.31;45.97
76054;BME280;64752;48.870;9.082;2023-12-07T10:46:21;98311.91;;;14.06;44.62
76054;BME280;64752;48.870;9.082;2023-12-07T10:48:51;98306.03;;;14.40;44.82
76054;BME280;64752;48.870;9.082;2023-12-07T10:53:55;98310.22;;;14.63;45.38
76054;BME280;64752;48.870;9.082;2023-12-07T10:56:45;98308.63;;;14.40;44.59
76054;BME280;64752;48.870;9.082;2023-12-07T10:59:12;98293.97;;;15.47;43.73
76054;BME280;64752;48.870;9.082;2023-12-07T11:01:41;98294.06;;;15.46;41.66
76054;BME280;64752;48.870;9.082;2023-12-07T11:04:11;98274.91;;;14.93;42.60
76054;BME280;64752;48.870;9.082;2023-12-07T11:06:37;98274.16;;;15.60;40.17
76054;BME280;64752;48.870;9.082;2023-12-07T11:09:13;98273.19;;;13.78;46.17
76054;BME280;64752;48.870;9.082;2023-12-07T11:11:46;98266.31;;;14.72;44.94
76054;BME280;64752;48.870;9.082;2023-12-07T11:14:13;98254.78;;;12.54;48.99
76054;BME280;64752;48.870;9.082;2023-12-07T11:16:40;98247.50;;;14.46;44.91
76054;BME280;64752;48.870;9.082;2023-12-07T11:22:09;98245.34;;;12.96;47.32
76054;BME280;64752;48.870;9.082;2023-12-07T11:24:35;98255.38;;;13.05;47.54
76054;BME280;64752;48.870;9.082;2023-12-07T11:27:04;98247.16;;;12.94;46.91
76054;BME280;64752;48.870;9.082;2023-12-07T11:29:31;98233.41;;;12.02;49.62
76054;BME280;64752;48.870;9.082;2023-12-07T11:32:04;98224.19;;;11.93;49.89
76054;BME280;64752;48.870;9.082;2023-12-07T11:37:01;98222.13;;;12.69;46.83
76054;BME280;64752;48.870;9.082;2023-12-07T11:39:28;98216.88;;;13.55;45.37
76054;BME280;64752;48.870;9.082;2023-12-07T11:41:54;98206.03;;;12.60;47.63
76054;BME280;64752;48.870;9.082;2023-12-07T11:44:24;98200.28;;;12.29;48.10
76054;BME280;64752;48.870;9.082;2023-12-07T11:46:49;98202.34;;;12.65;46.78
76054;BME280;64752;48.870;9.082;2023-12-07T11:49:15;98195.50;;;12.85;46.20
76054;BME280;64752;48.870;9.082;2023-12-07T11:51:41;98196.19;;;11.76;46.60
76054;BME280;64752;48.870;9.082;2023-12-07T11:54:07;98191.56;;;11.85;47.24
76054;BME280;64752;48.870;9.082;2023-12-07T11:56:36;98199.22;;;10.35;50.75
76054;BME280;64752;48.870;9.082;2023-12-07T11:59:02;98189.72;;;10.36;50.37
76054;BME280;64752;48.870;9.082;2023-12-07T12:01:28;98181.94;;;11.87;48.31
76054;BME280;64752;48.870;9.082;2023-12-07T12:03:55;98179.81;;;11.26;49.37
76054;BME280;64752;48.870;9.082;2023-12-07T12:06:23;98168.81;;;11.91;48.32
76054;BME280;64752;48.870;9.082;2023-12-07T12:08:48;98166.81;;;11.98;45.62
76054;BME280;64752;48.870;9.082;2023-12-07T12:11:14;98161.91;;;10.93;47.51
76054;BME280;64752;48.870;9.082;2023-12-07T12:13:40;98158.63;;;9.78;51.60
76054;BME280;64752;48.870;9.082;2023-12-07T12:16:06;98152.69;;;9.74;51.58
76054;BME280;64752;48.870;9.082;2023-12-07T12:18:32;98150.34;;;10.51;49.16
76054;BME280;64752;48.870;9.082;2023-12-07T12:20:58;98144.91;;;10.59;49.72
76054;BME280;64752;48.870;9.082;2023-12-07T12:23:24;98152.44;;;10.67;47.23
76054;BME280;64752;48.870;9.082;2023-12-07T12:25:50;98142.81;;;10.15;47.72
76054;BME280;64752;48.870;9.082;2023-12-07T12:28:16;98144.84;;;9.76;49.31
76054;BME280;64752;48.870;9.082;2023-12-07T12:30:47;98141.97;;;10.70;48.18
76054;BME280;64752;48.870;9.082;2023-12-07T12:33:13;98137.81;;;10.89;48.11
76054;BME280;64752;48.870;9.082;2023-12-07T12:35:39;98129.88;;;10.14;49.76
76054;BME280;64752;48.870;9.082;2023-12-07T12:38:09;98114.28;;;10.44;49.37
76054;BME280;64752;48.870;9.082;2023-12-07T12:40:36;98104.69;;;10.97;47.89
76054;BME280;64752;48.870;9.082;2023-12-07T12:43:01;98104.78;;;10.44;47.56
76054;BME280;64752;48.870;9.082;2023-12-07T12:45:27;98102.25;;;9.58;50.14
76054;BME280;64752;48.870;9.082;2023-12-07T12:47:52;98105.44;;;10.49;47.64
76054;BME280;64752;48.870;9.082;2023-12-07T12:50:41;98103.56;;;10.28;46.89
76054;BME280;64752;48.870;9.082;2023-12-07T12:53:10;98103.47;;;9.74;47.85
76054;BME280;64752;48.870;9.082;2023-12-07T12:55:37;98106.75;;;9.79;47.49
76054;BME280;64752;48.870;9.082;2023-12-07T12:58:03;98107.94;;;9.97;47.80
76054;BME280;64752;48.870;9.082;2023-12-07T13:00:30;98104.81;;;10.68;44.66
76054;BME280;64752;48.870;9.082;2023-12-07T13:02:58;98096.25;;;10.12;45.68